createdAt,value
2017-07-24T00:01:30.927Z,34.60
2017-07-24T00:03:59.026Z,34.60
2017-07-24T00:06:27.273Z,34.60
2017-07-24T00:08:55.779Z,34.60
2017-07-24T00:11:23.934Z,34.60
2017-07-24T00:13:52.406Z,34.60
2017-07-24T00:16:20.550Z,34.60
2017-07-24T00:18:48.650Z,34.60
2017-07-24T00:21:17.498Z,34.50
2017-07-24T00:23:46.378Z,34.50
2017-07-24T00:26:14.535Z,34.50
2017-07-24T00:28:42.757Z,34.50
2017-07-24T00:31:11.445Z,34.50
2017-07-24T00:33:39.569Z,34.50
2017-07-24T00:36:08.226Z,34.40
2017-07-24T00:38:36.729Z,34.50
2017-07-24T00:41:05.358Z,34.50
2017-07-24T00:43:33.614Z,34.50
2017-07-24T00:46:02.238Z,34.50
2017-07-24T00:48:30.325Z,34.50
2017-07-24T00:50:59.834Z,34.50
2017-07-24T00:53:29.065Z,34.50
2017-07-24T01:08:46.573Z,34.60
2017-07-24T01:11:15.074Z,34.60
2017-07-24T01:13:43.714Z,34.50
2017-07-24T01:16:13.194Z,34.50
2017-07-24T01:18:41.702Z,34.50
2017-07-24T01:21:09.844Z,34.50
2017-07-24T01:23:38.563Z,34.40
2017-07-24T01:26:06.690Z,34.50
2017-07-24T01:28:34.814Z,34.40
2017-07-24T01:31:04.350Z,34.50
2017-07-24T01:33:33.142Z,34.50
2017-07-24T01:36:01.870Z,34.50
2017-07-24T01:38:30.089Z,34.50
2017-07-24T01:40:58.191Z,34.50
2017-07-24T01:43:26.322Z,34.50
2017-07-24T01:45:54.635Z,34.50
2017-07-24T01:48:29.578Z,34.50
2017-07-24T01:50:57.701Z,34.50
2017-07-24T01:53:25.814Z,34.50
2017-07-24T01:55:53.970Z,34.50
2017-07-24T01:58:22.270Z,34.50
2017-07-24T02:00:50.403Z,34.50
2017-07-24T02:03:19.821Z,34.60
2017-07-24T02:05:48.139Z,34.60
2017-07-24T02:08:16.714Z,34.60
2017-07-24T02:10:45.454Z,34.60
2017-07-24T02:13:14.265Z,34.70
2017-07-24T02:15:42.359Z,34.70
2017-07-24T02:18:10.461Z,34.70
2017-07-24T02:20:38.702Z,34.80
2017-07-24T02:23:06.806Z,34.80
2017-07-24T02:25:34.906Z,34.80
2017-07-24T02:28:03.129Z,34.80
2017-07-24T02:30:31.242Z,34.90
2017-07-24T02:32:59.374Z,34.90
2017-07-24T02:35:27.781Z,35.00
2017-07-24T02:37:55.898Z,35.00
2017-07-24T02:40:24.010Z,35.10
2017-07-24T02:42:52.237Z,35.20
2017-07-24T02:45:20.332Z,35.20
2017-07-24T02:47:48.478Z,35.20
2017-07-24T02:50:17.097Z,35.40
2017-07-24T02:52:46.525Z,35.50
2017-07-24T02:55:15.013Z,35.50
2017-07-24T02:57:43.757Z,35.60
2017-07-24T03:00:12.426Z,35.60
2017-07-24T03:02:41.191Z,35.60
2017-07-24T03:05:09.798Z,35.70
2017-07-24T03:07:38.401Z,35.80
2017-07-24T03:10:07.074Z,35.80
2017-07-24T03:12:35.697Z,36.00
2017-07-24T03:15:04.306Z,36.10
2017-07-24T03:17:32.826Z,36.30
2017-07-24T03:20:01.449Z,36.30
2017-07-24T03:22:30.980Z,36.60
2017-07-24T03:24:59.515Z,36.50
2017-07-24T03:27:27.742Z,36.70
2017-07-24T03:29:56.346Z,36.90
2017-07-24T03:32:24.801Z,37.10
2017-07-24T03:34:53.062Z,37.20
2017-07-24T03:37:22.658Z,37.50
2017-07-24T03:39:51.896Z,37.60
2017-07-24T03:42:20.695Z,37.60
2017-07-24T03:44:49.351Z,37.70
2017-07-24T03:47:18.099Z,37.80
2017-07-24T03:49:46.622Z,37.80
2017-07-24T03:52:15.182Z,38.10
2017-07-24T03:54:43.858Z,38.10
2017-07-24T03:57:12.479Z,38.30
2017-07-24T03:59:40.886Z,38.50
2017-07-24T04:02:09.360Z,38.50
2017-07-24T04:04:39.030Z,38.70
2017-07-24T04:07:08.275Z,38.90
2017-07-24T04:09:36.353Z,38.90
2017-07-24T04:12:04.546Z,39.20
2017-07-24T04:14:32.608Z,39.30
2017-07-24T04:17:00.678Z,39.40
2017-07-24T04:19:28.902Z,39.70
2017-07-24T04:21:57.005Z,39.70
2017-07-24T04:24:25.108Z,39.90
2017-07-24T04:26:53.326Z,40.20
2017-07-24T04:29:21.423Z,40.50
2017-07-24T04:31:49.511Z,40.60
2017-07-24T04:34:17.734Z,40.80
2017-07-24T04:36:45.794Z,40.90
2017-07-24T04:39:14.610Z,41.00
2017-07-24T04:41:43.483Z,41.10
2017-07-24T04:44:11.993Z,41.40
2017-07-24T04:46:41.529Z,42.20
2017-07-24T04:49:09.746Z,42.10
2017-07-24T04:51:37.862Z,43.10
2017-07-24T04:54:06.322Z,44.00
2017-07-24T04:56:34.574Z,44.50
2017-07-24T04:59:02.654Z,45.40
2017-07-24T05:01:30.761Z,45.90
2017-07-24T05:03:58.985Z,45.90
2017-07-24T05:06:27.059Z,45.80
2017-07-24T05:08:55.130Z,44.80
2017-07-24T05:11:23.371Z,45.00
2017-07-24T05:13:51.486Z,44.90
2017-07-24T05:16:19.591Z,44.90
2017-07-24T05:18:47.794Z,45.30
2017-07-24T05:21:15.925Z,45.50
2017-07-24T05:23:44.054Z,45.90
2017-07-24T05:26:12.854Z,46.20
2017-07-24T05:28:41.598Z,45.90
2017-07-24T05:31:10.161Z,46.80
2017-07-24T05:33:38.393Z,46.90
2017-07-24T05:36:06.860Z,47.30
2017-07-24T05:38:35.380Z,47.20
2017-07-24T05:41:04.135Z,46.50
2017-07-24T09:47:12.034Z,45.60
2017-07-24T09:49:40.128Z,45.80
2017-07-24T09:52:08.117Z,45.60
2017-07-24T09:54:36.305Z,45.80
2017-07-24T09:57:04.375Z,45.90
2017-07-24T09:59:32.366Z,46.00
2017-07-24T10:02:00.533Z,45.80
2017-07-24T10:04:50.087Z,45.90
2017-07-24T10:21:42.650Z,45.90
2017-07-24T10:24:11.236Z,45.90
2017-07-24T10:26:39.374Z,45.70
2017-07-24T10:29:07.616Z,45.90
2017-07-24T10:31:35.706Z,45.70
2017-07-24T10:34:03.772Z,45.70
2017-07-24T10:36:32.056Z,45.70
2017-07-24T10:39:00.126Z,45.50
2017-07-24T10:41:28.178Z,45.40
2017-07-24T10:43:56.352Z,45.40
2017-07-24T10:46:24.387Z,45.40
2017-07-24T10:48:53.455Z,45.40
2017-07-24T10:51:21.654Z,45.30
2017-07-24T10:53:49.714Z,45.30
2017-07-24T10:56:17.770Z,45.20
2017-07-24T10:58:45.965Z,45.30
2017-07-24T11:01:13.997Z,45.30
2017-07-24T11:03:42.043Z,45.10
2017-07-24T11:06:10.210Z,45.00
2017-07-24T11:08:38.202Z,44.60
2017-07-24T11:11:06.239Z,44.60
2017-07-24T11:13:34.531Z,44.50
2017-07-24T11:16:02.568Z,44.40
2017-07-24T11:18:30.593Z,44.30
2017-07-24T11:20:58.737Z,44.10
2017-07-24T11:23:26.816Z,44.10
2017-07-24T11:25:54.841Z,44.00
2017-07-24T11:28:23.012Z,44.00
2017-07-24T11:30:51.036Z,43.80
2017-07-24T11:33:19.068Z,43.60
2017-07-24T11:35:47.257Z,43.80
2017-07-24T11:38:15.268Z,43.70
2017-07-24T11:40:43.302Z,43.70
2017-07-24T11:43:11.584Z,43.70
2017-07-24T11:45:39.645Z,43.70
2017-07-24T11:48:07.732Z,43.80
2017-07-24T11:50:36.064Z,43.90
2017-07-24T11:53:04.150Z,44.00
2017-07-24T11:55:32.138Z,43.90
2017-07-24T11:58:00.316Z,43.90
2017-07-24T12:00:28.383Z,43.90
2017-07-24T12:02:56.448Z,43.80
2017-07-24T12:18:22.565Z,43.80
2017-07-24T12:20:50.672Z,43.40
2017-07-24T12:23:18.747Z,43.30
2017-07-24T12:25:46.908Z,43.30
2017-07-24T12:28:14.978Z,43.20
2017-07-24T12:30:43.178Z,43.20
2017-07-24T12:33:11.366Z,43.00
2017-07-24T12:35:39.386Z,42.90
2017-07-24T12:38:07.413Z,42.70
2017-07-24T12:40:35.642Z,42.60
2017-07-24T12:43:03.714Z,42.50
2017-07-24T12:45:31.741Z,42.40
2017-07-24T12:47:59.944Z,42.30
2017-07-24T12:50:28.019Z,42.30
2017-07-24T12:52:56.248Z,42.10
2017-07-24T12:55:24.433Z,42.00
2017-07-24T12:57:52.472Z,41.90
2017-07-24T13:00:20.516Z,41.80
2017-07-24T13:02:48.688Z,41.70
2017-07-24T13:05:16.738Z,41.70
2017-07-24T13:07:44.734Z,41.70
2017-07-24T13:10:12.893Z,41.50
2017-07-24T13:12:40.921Z,41.30
2017-07-24T13:15:09.000Z,41.10
2017-07-24T13:17:37.193Z,41.00
2017-07-24T13:20:05.282Z,40.90
2017-07-24T13:22:33.384Z,40.80
2017-07-24T13:25:01.613Z,40.70
2017-07-24T13:27:30.490Z,40.70
2017-07-24T13:29:58.569Z,40.70
2017-07-24T13:32:26.735Z,40.50
2017-07-24T13:34:54.817Z,40.40
2017-07-24T13:37:22.889Z,40.40
2017-07-24T13:39:51.040Z,40.30
2017-07-24T13:42:19.061Z,40.30
2017-07-24T13:44:47.132Z,40.10
2017-07-24T13:47:15.292Z,40.00
2017-07-24T13:49:43.371Z,39.90
2017-07-24T13:52:11.458Z,40.00
2017-07-24T13:54:39.706Z,39.90
2017-07-24T13:57:07.776Z,39.90
2017-07-24T13:59:35.852Z,39.80
2017-07-24T14:02:04.074Z,39.70
2017-07-24T14:04:32.147Z,39.60
2017-07-24T14:07:00.184Z,39.30
2017-07-24T14:09:28.306Z,39.40
2017-07-24T14:11:56.335Z,39.20
2017-07-24T14:14:24.362Z,39.20
2017-07-24T14:16:52.523Z,39.20
2017-07-24T14:19:20.549Z,39.10
2017-07-24T14:21:48.613Z,39.20
2017-07-24T14:24:16.796Z,39.10
2017-07-24T14:26:44.876Z,39.10
2017-07-24T14:29:12.938Z,39.20
2017-07-24T14:31:41.209Z,39.20
2017-07-24T14:34:09.218Z,39.10
2017-07-24T14:36:37.256Z,39.00
2017-07-24T14:39:05.645Z,39.00
2017-07-24T14:41:33.712Z,39.00
2017-07-24T14:44:01.754Z,39.00
2017-07-24T14:46:29.952Z,39.00
2017-07-24T14:48:57.973Z,38.90
2017-07-24T14:51:26.065Z,38.80
2017-07-24T14:53:54.247Z,38.90
2017-07-24T14:56:22.436Z,38.90
2017-07-24T14:58:50.568Z,38.80
2017-07-24T15:01:18.732Z,38.80
2017-07-24T15:03:46.818Z,38.80
2017-07-24T15:06:14.900Z,38.70
2017-07-24T15:08:43.105Z,38.70
2017-07-24T15:11:11.223Z,38.80
2017-07-24T15:13:39.264Z,38.70
2017-07-24T15:16:07.482Z,38.60
2017-07-24T15:18:35.510Z,38.50
2017-07-24T15:21:03.537Z,38.40
2017-07-24T15:23:31.709Z,38.30
2017-07-24T15:25:59.730Z,38.30
2017-07-24T15:28:27.798Z,38.30
2017-07-24T15:30:55.992Z,38.20
2017-07-24T15:33:24.041Z,38.20
2017-07-24T15:35:52.124Z,38.00
2017-07-24T15:38:20.309Z,38.00
2017-07-24T15:40:48.376Z,38.00
2017-07-24T15:43:16.420Z,37.90
2017-07-24T15:45:44.610Z,37.90
2017-07-24T15:48:12.648Z,38.00
2017-07-24T15:50:40.748Z,38.00
2017-07-24T15:53:08.916Z,37.90
2017-07-24T15:55:36.964Z,38.00
2017-07-24T15:58:05.166Z,37.90
2017-07-24T16:00:33.338Z,37.80
2017-07-24T16:03:01.403Z,37.90
2017-07-24T16:05:29.459Z,37.90
2017-07-24T16:07:57.613Z,37.90
2017-07-24T16:10:25.644Z,37.80
2017-07-24T16:12:53.764Z,37.80
2017-07-24T16:15:21.951Z,37.80
2017-07-24T16:17:50.044Z,37.80
2017-07-24T16:20:18.096Z,37.90
2017-07-24T16:22:46.291Z,37.80
2017-07-24T16:25:14.354Z,37.80
2017-07-24T16:27:42.384Z,37.80
2017-07-24T16:30:10.547Z,37.80
2017-07-24T16:32:38.610Z,37.80
2017-07-24T16:35:06.716Z,37.80
2017-07-24T16:37:34.944Z,37.90
2017-07-24T16:40:03.030Z,37.90
2017-07-24T16:42:31.140Z,37.90
2017-07-24T16:44:59.312Z,37.90
2017-07-24T16:47:27.340Z,37.90
2017-07-24T16:49:55.354Z,37.90
2017-07-24T16:52:23.541Z,37.90
2017-07-24T16:54:51.573Z,37.90
2017-07-24T16:57:19.652Z,37.90
2017-07-24T16:59:47.909Z,37.90
2017-07-24T17:02:15.996Z,37.90
2017-07-24T17:04:43.995Z,37.90
2017-07-24T17:07:12.250Z,37.90
2017-07-24T17:09:40.310Z,37.90
2017-07-24T17:12:08.337Z,37.90
2017-07-24T17:14:36.518Z,37.90
2017-07-24T17:17:04.582Z,37.90
2017-07-24T17:19:32.635Z,37.90
2017-07-24T17:22:00.786Z,37.90
2017-07-24T17:24:28.904Z,37.90
2017-07-24T17:26:56.953Z,37.80
2017-07-24T17:29:25.089Z,37.90
2017-07-24T17:31:53.141Z,37.90
2017-07-24T17:34:21.161Z,37.80
2017-07-24T17:36:49.343Z,37.90
2017-07-24T17:39:17.400Z,37.80
2017-07-24T17:41:45.472Z,37.80
2017-07-24T17:44:13.688Z,37.80
2017-07-24T17:46:41.753Z,37.70
2017-07-24T17:49:09.850Z,37.70
2017-07-24T17:51:38.000Z,37.70
2017-07-24T17:54:06.080Z,37.70
2017-07-24T17:56:34.143Z,37.60
2017-07-24T17:59:02.383Z,37.60
2017-07-24T18:01:30.599Z,37.50
2017-07-24T18:03:58.711Z,37.50
2017-07-24T18:06:26.898Z,37.60
2017-07-24T18:08:54.961Z,37.60
2017-07-24T18:11:23.039Z,37.60
2017-07-24T18:13:51.292Z,37.60
2017-07-24T18:16:19.332Z,37.70
2017-07-24T18:18:47.440Z,37.70
2017-07-24T18:21:15.652Z,37.70
2017-07-24T18:23:43.755Z,37.70
2017-07-24T18:26:11.862Z,37.60
2017-07-24T18:28:39.988Z,37.70
2017-07-24T18:31:08.060Z,37.70
2017-07-24T18:33:36.128Z,37.70
2017-07-24T18:36:04.325Z,37.70
2017-07-24T18:38:32.342Z,37.70
2017-07-24T18:41:00.412Z,37.70
2017-07-24T18:43:28.579Z,37.70
2017-07-24T18:45:56.648Z,37.70
2017-07-24T18:48:24.743Z,37.60
2017-07-24T18:50:52.972Z,37.70
2017-07-24T18:53:20.998Z,37.60
2017-07-24T18:55:49.062Z,37.60
2017-07-24T18:58:17.177Z,37.60
2017-07-24T19:00:45.174Z,37.60
2017-07-24T19:03:13.358Z,37.60
2017-07-24T19:05:41.515Z,37.50
2017-07-24T19:08:09.579Z,37.50
2017-07-24T19:10:37.633Z,37.60
2017-07-24T19:13:05.815Z,37.50
2017-07-24T19:15:33.840Z,37.50
2017-07-24T19:18:01.898Z,37.60
2017-07-24T19:20:30.096Z,37.50
2017-07-24T19:22:58.151Z,37.50
2017-07-24T19:25:26.201Z,37.50
2017-07-24T19:27:54.397Z,37.50
2017-07-24T19:30:22.439Z,37.50
2017-07-24T19:32:50.550Z,37.50
2017-07-24T19:35:18.756Z,37.50
2017-07-24T19:37:46.790Z,37.50
2017-07-24T19:40:14.848Z,37.60
2017-07-24T19:42:43.052Z,37.60
2017-07-24T19:45:11.089Z,37.50
2017-07-24T19:47:39.082Z,37.50
2017-07-24T19:50:07.217Z,37.50
2017-07-24T19:52:35.299Z,37.50
2017-07-24T19:55:03.321Z,37.50
2017-07-24T19:57:31.516Z,37.50
2017-07-24T19:59:59.600Z,37.40
2017-07-24T20:02:27.619Z,37.50
2017-07-24T20:04:55.968Z,37.50
2017-07-24T20:07:23.966Z,37.50
2017-07-24T20:09:52.013Z,37.50
2017-07-24T20:12:20.190Z,37.50
2017-07-24T20:14:48.289Z,37.50
2017-07-24T20:17:16.347Z,37.40
2017-07-24T20:19:44.561Z,37.40
2017-07-24T20:22:12.595Z,37.40
2017-07-24T20:24:40.594Z,37.40
2017-07-24T20:27:08.771Z,37.50
2017-07-24T20:29:37.182Z,37.40
2017-07-24T20:32:05.238Z,37.40
2017-07-24T20:34:33.443Z,37.40
2017-07-24T20:37:01.475Z,37.40
2017-07-24T20:39:29.568Z,37.30
2017-07-24T20:41:57.730Z,37.30
2017-07-24T20:44:25.808Z,37.30
2017-07-24T20:46:53.880Z,37.30
2017-07-24T20:49:22.062Z,37.20
2017-07-24T20:51:50.069Z,37.20
2017-07-24T20:54:18.088Z,37.20
2017-07-24T20:56:46.262Z,37.20
2017-07-24T20:59:14.303Z,37.10
2017-07-24T21:01:42.344Z,37.10
2017-07-24T21:04:10.516Z,37.10
2017-07-24T21:06:38.744Z,37.10
2017-07-24T21:09:06.844Z,37.20
2017-07-24T21:11:35.012Z,37.10
2017-07-24T21:14:03.100Z,37.10
2017-07-24T21:16:31.204Z,37.10
2017-07-24T21:18:59.423Z,37.10
2017-07-24T21:21:27.507Z,37.10
2017-07-24T21:23:55.529Z,37.00
2017-07-24T21:26:23.727Z,37.00
2017-07-24T21:28:51.810Z,37.00
2017-07-24T21:31:19.864Z,37.00
2017-07-24T21:33:48.075Z,37.00
2017-07-24T21:36:16.246Z,37.00
2017-07-24T21:38:44.319Z,37.00
2017-07-24T21:41:12.489Z,37.00
2017-07-24T21:43:40.560Z,36.90
2017-07-24T21:46:08.585Z,36.90
2017-07-24T21:48:36.714Z,36.90
2017-07-24T21:51:04.752Z,36.90
2017-07-24T21:53:32.832Z,36.90
2017-07-24T21:56:01.013Z,36.90
2017-07-24T21:58:29.036Z,36.90
2017-07-24T22:00:57.106Z,36.90
2017-07-24T22:03:25.320Z,36.90
2017-07-24T22:05:53.346Z,36.90
2017-07-24T22:08:21.621Z,36.80
2017-07-24T22:10:49.823Z,36.80
2017-07-24T22:13:17.878Z,36.80
2017-07-24T22:15:45.875Z,36.80
2017-07-24T22:18:14.046Z,36.80
2017-07-24T22:20:42.115Z,36.80
2017-07-24T22:23:10.142Z,36.80
2017-07-24T22:25:38.281Z,36.90
2017-07-24T22:28:06.436Z,36.80
2017-07-24T22:30:34.514Z,36.80
2017-07-24T22:33:02.694Z,36.80
2017-07-24T22:35:30.907Z,36.80
2017-07-24T22:37:59.004Z,36.70
2017-07-24T22:40:27.186Z,36.60
2017-07-24T22:42:55.214Z,36.50
2017-07-24T22:45:23.369Z,36.50
2017-07-24T22:47:51.564Z,36.60
2017-07-24T22:50:19.578Z,36.60
2017-07-24T22:52:47.644Z,36.60
2017-07-24T22:55:15.831Z,36.60
2017-07-24T22:57:43.893Z,36.60
2017-07-24T23:00:11.905Z,36.50
2017-07-24T23:02:40.099Z,36.50
2017-07-24T23:05:08.190Z,36.50
2017-07-24T23:07:36.268Z,36.40
2017-07-24T23:10:04.583Z,36.40
2017-07-24T23:12:32.600Z,36.40
2017-07-24T23:15:00.629Z,36.30
2017-07-24T23:17:28.818Z,36.30
2017-07-24T23:19:56.847Z,36.20
2017-07-24T23:22:24.931Z,36.20
2017-07-24T23:24:53.118Z,36.10
2017-07-24T23:27:21.157Z,36.20
2017-07-24T23:29:49.216Z,36.10
2017-07-24T23:32:17.438Z,36.10
2017-07-24T23:34:45.459Z,36.10
2017-07-24T23:37:13.471Z,36.10
2017-07-24T23:39:41.644Z,36.10
2017-07-24T23:42:09.730Z,36.10
2017-07-24T23:44:37.774Z,36.10
2017-07-24T23:47:05.968Z,36.20
2017-07-24T23:49:33.995Z,36.10
2017-07-24T23:52:02.027Z,36.10
2017-07-24T23:54:30.171Z,36.10
2017-07-24T23:56:58.198Z,36.20
2017-07-24T23:59:26.226Z,36.10
